sensor_id;sensor_type;location;lat;lon;timestamp;P1;durP1;ratioP1;P2;durP2;ratioP2
42978;SDS011;28616;44.746;19.678;2022-07-15T00:01:16;6.50;;;5.80;;
42978;SDS011;28616;44.746;19.678;2022-07-15T00:03:41;7.97;;;6.30;;
42978;SDS011;28616;44.746;19.678;2022-07-15T00:06:07;6.53;;;5.95;;
42978;SDS011;28616;44.746;19.678;2022-07-15T00:08:33;7.22;;;6.63;;
42978;SDS011;28616;44.746;19.678;2022-07-15T00:10:59;6.93;;;6.22;;
42978;SDS011;28616;44.746;19.678;2022-07-15T00:13:24;8.63;;;5.90;;
42978;SDS011;28616;44.746;19.678;2022-07-15T00:15:50;7.60;;;6.57;;
42978;SDS011;28616;44.746;19.678;2022-07-15T00:18:16;7.40;;;6.70;;
42978;SDS011;28616;44.746;19.678;2022-07-15T00:20:42;8.73;;;6.88;;
42978;SDS011;28616;44.746;19.678;2022-07-15T00:23:08;9.52;;;6.45;;
42978;SDS011;28616;44.746;19.678;2022-07-15T00:25:34;7.45;;;6.68;;
42978;SDS011;28616;44.746;19.678;2022-07-15T00:28:05;6.68;;;6.10;;
42978;SDS011;28616;44.746;19.678;2022-07-15T00:30:34;6.85;;;6.00;;
42978;SDS011;28616;44.746;19.678;2022-07-15T00:33:02;8.13;;;7.18;;
42978;SDS011;28616;44.746;19.678;2022-07-15T00:35:29;6.80;;;6.30;;
42978;SDS011;28616;44.746;19.678;2022-07-15T00:37:55;11.05;;;6.30;;
42978;SDS011;28616;44.746;19.678;2022-07-15T00:40:21;8.65;;;6.47;;
42978;SDS011;28616;44.746;19.678;2022-07-15T00:42:48;6.57;;;6.07;;
42978;SDS011;28616;44.746;19.678;2022-07-15T00:45:15;8.65;;;5.70;;
42978;SDS011;28616;44.746;19.678;2022-07-15T00:47:46;8.10;;;5.03;;
42978;SDS011;28616;44.746;19.678;2022-07-15T00:50:14;5.30;;;4.80;;
42978;SDS011;28616;44.746;19.678;2022-07-15T00:52:42;9.25;;;5.05;;
42978;SDS011;28616;44.746;19.678;2022-07-15T00:55:10;8.18;;;5.07;;
42978;SDS011;28616;44.746;19.678;2022-07-15T00:57:38;8.60;;;4.47;;
42978;SDS011;28616;44.746;19.678;2022-07-15T01:00:07;8.93;;;3.67;;
42978;SDS011;28616;44.746;19.678;2022-07-15T01:02:37;6.63;;;4.50;;
42978;SDS011;28616;44.746;19.678;2022-07-15T01:05:04;3.55;;;2.53;;
42978;SDS011;28616;44.746;19.678;2022-07-15T01:07:31;9.65;;;4.45;;
42978;SDS011;28616;44.746;19.678;2022-07-15T01:09:58;6.65;;;3.85;;
42978;SDS011;28616;44.746;19.678;2022-07-15T01:12:25;8.40;;;4.35;;
42978;SDS011;28616;44.746;19.678;2022-07-15T01:14:51;4.20;;;3.80;;
42978;SDS011;28616;44.746;19.678;2022-07-15T01:17:17;9.55;;;3.38;;
42978;SDS011;28616;44.746;19.678;2022-07-15T01:19:43;12.95;;;4.10;;
42978;SDS011;28616;44.746;19.678;2022-07-15T01:22:09;3.92;;;3.40;;
42978;SDS011;28616;44.746;19.678;2022-07-15T01:24:35;7.93;;;3.53;;
42978;SDS011;28616;44.746;19.678;2022-07-15T01:27:01;4.25;;;3.60;;
42978;SDS011;28616;44.746;19.678;2022-07-15T01:29:27;8.07;;;3.17;;
42978;SDS011;28616;44.746;19.678;2022-07-15T01:31:53;5.70;;;4.18;;
42978;SDS011;28616;44.746;19.678;2022-07-15T01:34:19;4.97;;;3.40;;
42978;SDS011;28616;44.746;19.678;2022-07-15T01:36:45;9.50;;;3.42;;
42978;SDS011;28616;44.746;19.678;2022-07-15T01:39:11;7.47;;;4.97;;
42978;SDS011;28616;44.746;19.678;2022-07-15T01:41:37;9.27;;;3.40;;
42978;SDS011;28616;44.746;19.678;2022-07-15T01:44:03;8.07;;;5.43;;
42978;SDS011;28616;44.746;19.678;2022-07-15T01:46:29;8.63;;;5.72;;
42978;SDS011;28616;44.746;19.678;2022-07-15T01:48:55;6.10;;;4.50;;
42978;SDS011;28616;44.746;19.678;2022-07-15T01:51:40;8.45;;;4.72;;
42978;SDS011;28616;44.746;19.678;2022-07-15T01:54:05;8.68;;;4.07;;
42978;SDS011;28616;44.746;19.678;2022-07-15T01:56:31;7.95;;;4.03;;
42978;SDS011;28616;44.746;19.678;2022-07-15T01:58:57;7.30;;;3.88;;
42978;SDS011;28616;44.746;19.678;2022-07-15T02:01:23;6.78;;;4.35;;
42978;SDS011;28616;44.746;19.678;2022-07-15T02:03:49;7.53;;;4.78;;
42978;SDS011;28616;44.746;19.678;2022-07-15T02:06:15;8.55;;;3.05;;
42978;SDS011;28616;44.746;19.678;2022-07-15T02:08:41;6.40;;;3.17;;
42978;SDS011;28616;44.746;19.678;2022-07-15T02:11:07;8.18;;;3.38;;
42978;SDS011;28616;44.746;19.678;2022-07-15T02:13:33;7.95;;;3.03;;
42978;SDS011;28616;44.746;19.678;2022-07-15T02:15:59;7.03;;;2.70;;
42978;SDS011;28616;44.746;19.678;2022-07-15T02:18:24;4.15;;;2.95;;
42978;SDS011;28616;44.746;19.678;2022-07-15T02:20:50;4.38;;;2.53;;
42978;SDS011;28616;44.746;19.678;2022-07-15T02:23:16;11.20;;;2.53;;
42978;SDS011;28616;44.746;19.678;2022-07-15T02:25:42;4.78;;;2.90;;
42978;SDS011;28616;44.746;19.678;2022-07-15T02:28:08;7.25;;;3.03;;
42978;SDS011;28616;44.746;19.678;2022-07-15T02:30:38;6.57;;;4.05;;
42978;SDS011;28616;44.746;19.678;2022-07-15T02:33:05;10.27;;;5.68;;
42978;SDS011;28616;44.746;19.678;2022-07-15T02:35:32;7.40;;;4.18;;
42978;SDS011;28616;44.746;19.678;2022-07-15T02:37:58;7.03;;;3.47;;
42978;SDS011;28616;44.746;19.678;2022-07-15T02:40:27;8.18;;;3.30;;
42978;SDS011;28616;44.746;19.678;2022-07-15T02:42:54;5.35;;;2.85;;
42978;SDS011;28616;44.746;19.678;2022-07-15T02:45:22;7.00;;;2.63;;
42978;SDS011;28616;44.746;19.678;2022-07-15T02:47:49;5.03;;;2.30;;
42978;SDS011;28616;44.746;19.678;2022-07-15T02:50:15;5.25;;;3.03;;
42978;SDS011;28616;44.746;19.678;2022-07-15T02:52:42;8.25;;;2.88;;
42978;SDS011;28616;44.746;19.678;2022-07-15T02:55:09;7.22;;;3.20;;
42978;SDS011;28616;44.746;19.678;2022-07-15T02:57:36;11.45;;;4.57;;
42978;SDS011;28616;44.746;19.678;2022-07-15T03:00:06;6.85;;;2.83;;
42978;SDS011;28616;44.746;19.678;2022-07-15T03:02:34;9.05;;;3.33;;
42978;SDS011;28616;44.746;19.678;2022-07-15T03:05:01;8.82;;;3.72;;
42978;SDS011;28616;44.746;19.678;2022-07-15T03:07:26;6.18;;;3.15;;
42978;SDS011;28616;44.746;19.678;2022-07-15T03:09:55;11.82;;;3.25;;
42978;SDS011;28616;44.746;19.678;2022-07-15T03:12:21;5.93;;;2.95;;
42978;SDS011;28616;44.746;19.678;2022-07-15T03:14:47;9.80;;;4.07;;
42978;SDS011;28616;44.746;19.678;2022-07-15T03:17:13;6.80;;;3.75;;
42978;SDS011;28616;44.746;19.678;2022-07-15T03:19:39;9.82;;;3.42;;
42978;SDS011;28616;44.746;19.678;2022-07-15T03:22:05;11.85;;;4.82;;
42978;SDS011;28616;44.746;19.678;2022-07-15T03:24:32;10.20;;;4.00;;
42978;SDS011;28616;44.746;19.678;2022-07-15T03:26:58;10.98;;;5.20;;
42978;SDS011;28616;44.746;19.678;2022-07-15T03:29:24;13.20;;;4.30;;
42978;SDS011;28616;44.746;19.678;2022-07-15T03:31:50;15.73;;;6.35;;
42978;SDS011;28616;44.746;19.678;2022-07-15T03:34:15;13.80;;;7.45;;
42978;SDS011;28616;44.746;19.678;2022-07-15T03:36:42;18.98;;;9.20;;
42978;SDS011;28616;44.746;19.678;2022-07-15T03:39:08;26.25;;;11.48;;
42978;SDS011;28616;44.746;19.678;2022-07-15T03:41:34;24.75;;;12.80;;
42978;SDS011;28616;44.746;19.678;2022-07-15T03:44:00;39.17;;;17.00;;
42978;SDS011;28616;44.746;19.678;2022-07-15T03:46:27;43.60;;;19.60;;
42978;SDS011;28616;44.746;19.678;2022-07-15T03:48:55;42.00;;;18.63;;
42978;SDS011;28616;44.746;19.678;2022-07-15T03:51:21;38.22;;;16.30;;
42978;SDS011;28616;44.746;19.678;2022-07-15T03:53:49;36.22;;;15.32;;
42978;SDS011;28616;44.746;19.678;2022-07-15T03:56:15;27.25;;;13.80;;
42978;SDS011;28616;44.746;19.678;2022-07-15T03:58:41;34.22;;;13.68;;
42978;SDS011;28616;44.746;19.678;2022-07-15T04:01:09;28.42;;;12.98;;
42978;SDS011;28616;44.746;19.678;2022-07-15T04:03:35;29.27;;;12.68;;
42978;SDS011;28616;44.746;19.678;2022-07-15T04:06:01;26.00;;;10.70;;
42978;SDS011;28616;44.746;19.678;2022-07-15T04:08:27;23.40;;;8.05;;
42978;SDS011;28616;44.746;19.678;2022-07-15T04:10:55;21.48;;;8.10;;
42978;SDS011;28616;44.746;19.678;2022-07-15T04:13:21;20.25;;;7.05;;
42978;SDS011;28616;44.746;19.678;2022-07-15T04:15:47;24.25;;;7.60;;
42978;SDS011;28616;44.746;19.678;2022-07-15T04:18:12;29.23;;;9.18;;
42978;SDS011;28616;44.746;19.678;2022-07-15T04:20:41;16.05;;;8.90;;
42978;SDS011;28616;44.746;19.678;2022-07-15T04:23:07;21.77;;;10.13;;
42978;SDS011;28616;44.746;19.678;2022-07-15T04:25:33;19.35;;;8.20;;
42978;SDS011;28616;44.746;19.678;2022-07-15T04:27:59;24.65;;;9.40;;
42978;SDS011;28616;44.746;19.678;2022-07-15T04:30:25;20.77;;;8.50;;
42978;SDS011;28616;44.746;19.678;2022-07-15T04:32:50;16.15;;;8.13;;
42978;SDS011;28616;44.746;19.678;2022-07-15T04:35:16;17.02;;;7.22;;
42978;SDS011;28616;44.746;19.678;2022-07-15T04:37:42;16.27;;;7.05;;
42978;SDS011;28616;44.746;19.678;2022-07-15T04:40:08;16.52;;;7.80;;
42978;SDS011;28616;44.746;19.678;2022-07-15T04:42:35;16.25;;;8.50;;
42978;SDS011;28616;44.746;19.678;2022-07-15T04:45:01;21.65;;;7.55;;
42978;SDS011;28616;44.746;19.678;2022-07-15T04:47:27;22.95;;;8.45;;
42978;SDS011;28616;44.746;19.678;2022-07-15T04:49:53;26.67;;;9.57;;
42978;SDS011;28616;44.746;19.678;2022-07-15T04:52:42;20.45;;;9.20;;
42978;SDS011;28616;44.746;19.678;2022-07-15T04:55:08;18.97;;;8.20;;
42978;SDS011;28616;44.746;19.678;2022-07-15T04:57:34;18.60;;;7.85;;
42978;SDS011;28616;44.746;19.678;2022-07-15T05:00:00;15.60;;;7.93;;
42978;SDS011;28616;44.746;19.678;2022-07-15T05:02:26;26.42;;;8.52;;
42978;SDS011;28616;44.746;19.678;2022-07-15T05:04:51;19.13;;;7.28;;
42978;SDS011;28616;44.746;19.678;2022-07-15T05:07:17;19.25;;;7.43;;
42978;SDS011;28616;44.746;19.678;2022-07-15T05:09:43;20.77;;;8.55;;
42978;SDS011;28616;44.746;19.678;2022-07-15T05:12:09;22.58;;;8.68;;
42978;SDS011;28616;44.746;19.678;2022-07-15T05:14:34;29.20;;;8.68;;
42978;SDS011;28616;44.746;19.678;2022-07-15T05:17:00;15.23;;;8.30;;
42978;SDS011;28616;44.746;19.678;2022-07-15T05:19:26;23.67;;;8.75;;
42978;SDS011;28616;44.746;19.678;2022-07-15T05:21:52;12.80;;;7.25;;
42978;SDS011;28616;44.746;19.678;2022-07-15T05:24:18;17.50;;;7.68;;
42978;SDS011;28616;44.746;19.678;2022-07-15T05:26:44;19.23;;;8.20;;
42978;SDS011;28616;44.746;19.678;2022-07-15T05:29:10;25.50;;;8.23;;
42978;SDS011;28616;44.746;19.678;2022-07-15T05:31:36;20.30;;;7.47;;
42978;SDS011;28616;44.746;19.678;2022-07-15T05:34:01;19.25;;;7.72;;
42978;SDS011;28616;44.746;19.678;2022-07-15T05:36:27;13.70;;;7.43;;
42978;SDS011;28616;44.746;19.678;2022-07-15T05:38:53;28.20;;;11.65;;
42978;SDS011;28616;44.746;19.678;2022-07-15T05:41:19;36.17;;;14.73;;
42978;SDS011;28616;44.746;19.678;2022-07-15T05:43:44;29.40;;;9.35;;
42978;SDS011;28616;44.746;19.678;2022-07-15T05:46:10;20.30;;;8.48;;
42978;SDS011;28616;44.746;19.678;2022-07-15T05:48:37;12.73;;;6.40;;
42978;SDS011;28616;44.746;19.678;2022-07-15T05:51:04;9.25;;;6.18;;
42978;SDS011;28616;44.746;19.678;2022-07-15T05:53:30;14.27;;;7.55;;
42978;SDS011;28616;44.746;19.678;2022-07-15T05:55:57;10.75;;;6.07;;
42978;SDS011;28616;44.746;19.678;2022-07-15T05:58:23;25.58;;;8.73;;
42978;SDS011;28616;44.746;19.678;2022-07-15T06:00:51;15.32;;;8.75;;
42978;SDS011;28616;44.746;19.678;2022-07-15T06:03:18;15.40;;;8.02;;
42978;SDS011;28616;44.746;19.678;2022-07-15T06:05:44;19.10;;;9.63;;
42978;SDS011;28616;44.746;19.678;2022-07-15T06:08:10;26.80;;;11.43;;
42978;SDS011;28616;44.746;19.678;2022-07-15T06:10:36;41.10;;;16.60;;
42978;SDS011;28616;44.746;19.678;2022-07-15T06:13:03;38.35;;;14.98;;
42978;SDS011;28616;44.746;19.678;2022-07-15T06:15:30;52.65;;;18.90;;
42978;SDS011;28616;44.746;19.678;2022-07-15T06:17:56;40.88;;;16.58;;
42978;SDS011;28616;44.746;19.678;2022-07-15T06:20:22;41.75;;;15.40;;
42978;SDS011;28616;44.746;19.678;2022-07-15T06:22:49;47.60;;;14.60;;
42978;SDS011;28616;44.746;19.678;2022-07-15T06:25:15;38.00;;;13.57;;
42978;SDS011;28616;44.746;19.678;2022-07-15T06:27:41;39.65;;;15.98;;
42978;SDS011;28616;44.746;19.678;2022-07-15T06:30:07;47.22;;;14.68;;
42978;SDS011;28616;44.746;19.678;2022-07-15T06:32:34;38.15;;;14.73;;
42978;SDS011;28616;44.746;19.678;2022-07-15T06:35:00;26.33;;;10.52;;
42978;SDS011;28616;44.746;19.678;2022-07-15T06:37:26;20.40;;;8.90;;
42978;SDS011;28616;44.746;19.678;2022-07-15T06:39:53;15.45;;;6.90;;
42978;SDS011;28616;44.746;19.678;2022-07-15T06:42:20;9.68;;;6.35;;
42978;SDS011;28616;44.746;19.678;2022-07-15T06:44:46;12.73;;;6.47;;
42978;SDS011;28616;44.746;19.678;2022-07-15T06:47:12;16.02;;;7.25;;
42978;SDS011;28616;44.746;19.678;2022-07-15T06:49:38;12.95;;;6.22;;
42978;SDS011;28616;44.746;19.678;2022-07-15T06:52:05;11.55;;;5.70;;
42978;SDS011;28616;44.746;19.678;2022-07-15T06:54:31;8.70;;;5.65;;
42978;SDS011;28616;44.746;19.678;2022-07-15T06:56:57;10.93;;;5.75;;
42978;SDS011;28616;44.746;19.678;2022-07-15T06:59:24;11.32;;;6.10;;
42978;SDS011;28616;44.746;19.678;2022-07-15T07:01:51;8.48;;;6.30;;
42978;SDS011;28616;44.746;19.678;2022-07-15T07:04:17;15.43;;;6.47;;
42978;SDS011;28616;44.746;19.678;2022-07-15T07:06:44;11.98;;;5.60;;
42978;SDS011;28616;44.746;19.678;2022-07-15T07:09:10;8.30;;;6.10;;
42978;SDS011;28616;44.746;19.678;2022-07-15T07:11:37;6.40;;;5.32;;
42978;SDS011;28616;44.746;19.678;2022-07-15T07:14:04;8.73;;;5.97;;
42978;SDS011;28616;44.746;19.678;2022-07-15T07:16:30;5.85;;;5.25;;
42978;SDS011;28616;44.746;19.678;2022-07-15T07:18:57;9.07;;;5.53;;
42978;SDS011;28616;44.746;19.678;2022-07-15T07:21:23;9.93;;;4.88;;
42978;SDS011;28616;44.746;19.678;2022-07-15T07:23:49;6.25;;;5.65;;
42978;SDS011;28616;44.746;19.678;2022-07-15T07:26:16;9.80;;;4.88;;
42978;SDS011;28616;44.746;19.678;2022-07-15T07:28:42;8.90;;;6.15;;
42978;SDS011;28616;44.746;19.678;2022-07-15T07:31:09;12.88;;;5.60;;
42978;SDS011;28616;44.746;19.678;2022-07-15T07:33:36;6.10;;;5.50;;
42978;SDS011;28616;44.746;19.678;2022-07-15T07:36:03;7.53;;;5.00;;
42978;SDS011;28616;44.746;19.678;2022-07-15T07:38:30;8.45;;;4.85;;
42978;SDS011;28616;44.746;19.678;2022-07-15T07:40:56;14.15;;;5.68;;
42978;SDS011;28616;44.746;19.678;2022-07-15T07:43:23;15.65;;;6.03;;
42978;SDS011;28616;44.746;19.678;2022-07-15T07:45:49;12.88;;;5.57;;
42978;SDS011;28616;44.746;19.678;2022-07-15T07:48:15;20.45;;;9.13;;
42978;SDS011;28616;44.746;19.678;2022-07-15T07:50:42;13.20;;;8.75;;
42978;SDS011;28616;44.746;19.678;2022-07-15T07:53:09;10.60;;;8.73;;
42978;SDS011;28616;44.746;19.678;2022-07-15T07:55:35;10.32;;;9.20;;
42978;SDS011;28616;44.746;19.678;2022-07-15T07:58:02;12.15;;;11.13;;
42978;SDS011;28616;44.746;19.678;2022-07-15T08:00:28;11.85;;;10.35;;
42978;SDS011;28616;44.746;19.678;2022-07-15T08:02:55;21.45;;;10.15;;
42978;SDS011;28616;44.746;19.678;2022-07-15T08:05:22;14.15;;;9.75;;
42978;SDS011;28616;44.746;19.678;2022-07-15T08:07:48;10.07;;;9.25;;
42978;SDS011;28616;44.746;19.678;2022-07-15T08:10:15;15.77;;;9.50;;
42978;SDS011;28616;44.746;19.678;2022-07-15T08:12:42;14.25;;;9.65;;
42978;SDS011;28616;44.746;19.678;2022-07-15T08:15:09;11.85;;;10.77;;
42978;SDS011;28616;44.746;19.678;2022-07-15T08:17:37;9.70;;;8.68;;
42978;SDS011;28616;44.746;19.678;2022-07-15T08:20:06;9.95;;;8.50;;
42978;SDS011;28616;44.746;19.678;2022-07-15T08:22:34;8.93;;;7.95;;
42978;SDS011;28616;44.746;19.678;2022-07-15T08:25:00;9.98;;;8.95;;
42978;SDS011;28616;44.746;19.678;2022-07-15T08:27:26;10.35;;;8.52;;
42978;SDS011;28616;44.746;19.678;2022-07-15T08:29:52;12.57;;;8.75;;
42978;SDS011;28616;44.746;19.678;2022-07-15T08:32:20;11.10;;;9.02;;
42978;SDS011;28616;44.746;19.678;2022-07-15T08:34:46;10.60;;;9.50;;
42978;SDS011;28616;44.746;19.678;2022-07-15T08:37:13;12.65;;;11.13;;
42978;SDS011;28616;44.746;19.678;2022-07-15T08:39:39;11.82;;;10.63;;
42978;SDS011;28616;44.746;19.678;2022-07-15T08:42:05;11.32;;;10.32;;
42978;SDS011;28616;44.746;19.678;2022-07-15T08:44:32;10.15;;;9.30;;
42978;SDS011;28616;44.746;19.678;2022-07-15T08:47:01;13.23;;;10.65;;
42978;SDS011;28616;44.746;19.678;2022-07-15T08:49:29;18.23;;;9.93;;
42978;SDS011;28616;44.746;19.678;2022-07-15T08:51:57;11.68;;;10.48;;
42978;SDS011;28616;44.746;19.678;2022-07-15T08:54:24;11.20;;;10.18;;
42978;SDS011;28616;44.746;19.678;2022-07-15T08:56:50;14.95;;;10.18;;
42978;SDS011;28616;44.746;19.678;2022-07-15T08:59:16;15.00;;;9.95;;
42978;SDS011;28616;44.746;19.678;2022-07-15T09:01:43;14.38;;;10.60;;
42978;SDS011;28616;44.746;19.678;2022-07-15T09:04:10;12.35;;;9.90;;
42978;SDS011;28616;44.746;19.678;2022-07-15T09:09:24;17.65;;;10.38;;
42978;SDS011;28616;44.746;19.678;2022-07-15T09:12:02;12.07;;;10.00;;
42978;SDS011;28616;44.746;19.678;2022-07-15T09:14:29;18.80;;;8.63;;
42978;SDS011;28616;44.746;19.678;2022-07-15T09:17:05;17.83;;;9.45;;
42978;SDS011;28616;44.746;19.678;2022-07-15T09:20:16;21.48;;;8.90;;
42978;SDS011;28616;44.746;19.678;2022-07-15T09:22:17;11.18;;;9.27;;
42978;SDS011;28616;44.746;19.678;2022-07-15T09:24:44;17.38;;;10.63;;
42978;SDS011;28616;44.746;19.678;2022-07-15T09:29:55;14.75;;;9.38;;
42978;SDS011;28616;44.746;19.678;2022-07-15T09:32:40;16.23;;;10.18;;
42978;SDS011;28616;44.746;19.678;2022-07-15T09:35:25;13.60;;;10.07;;
42978;SDS011;28616;44.746;19.678;2022-07-15T09:38:11;13.45;;;8.40;;
42978;SDS011;28616;44.746;19.678;2022-07-15T09:40:47;10.25;;;9.35;;
42978;SDS011;28616;44.746;19.678;2022-07-15T09:43:14;10.38;;;9.48;;
42978;SDS011;28616;44.746;19.678;2022-07-15T09:45:40;11.80;;;10.50;;
42978;SDS011;28616;44.746;19.678;2022-07-15T09:48:07;11.25;;;9.40;;
42978;SDS011;28616;44.746;19.678;2022-07-15T09:50:33;11.05;;;10.05;;
42978;SDS011;28616;44.746;19.678;2022-07-15T09:53:02;13.52;;;9.40;;
42978;SDS011;28616;44.746;19.678;2022-07-15T09:55:28;10.43;;;9.38;;
42978;SDS011;28616;44.746;19.678;2022-07-15T09:57:54;13.38;;;9.02;;
42978;SDS011;28616;44.746;19.678;2022-07-15T10:00:22;8.85;;;8.13;;
42978;SDS011;28616;44.746;19.678;2022-07-15T10:02:48;9.90;;;9.02;;
42978;SDS011;28616;44.746;19.678;2022-07-15T10:05:14;9.68;;;8.80;;
42978;SDS011;28616;44.746;19.678;2022-07-15T10:07:41;9.82;;;9.07;;
42978;SDS011;28616;44.746;19.678;2022-07-15T10:10:07;9.77;;;8.98;;
42978;SDS011;28616;44.746;19.678;2022-07-15T10:13:09;9.80;;;8.73;;
42978;SDS011;28616;44.746;19.678;2022-07-15T10:15:33;9.20;;;8.27;;
42978;SDS011;28616;44.746;19.678;2022-07-15T10:28:36;12.50;;;9.40;;
42978;SDS011;28616;44.746;19.678;2022-07-15T10:33:40;11.10;;;10.18;;
42978;SDS011;28616;44.746;19.678;2022-07-15T10:36:06;11.13;;;10.00;;
42978;SDS011;28616;44.746;19.678;2022-07-15T10:38:36;9.98;;;9.18;;
42978;SDS011;28616;44.746;19.678;2022-07-15T10:43:48;10.20;;;9.30;;
42978;SDS011;28616;44.746;19.678;2022-07-15T10:48:48;9.60;;;8.63;;
42978;SDS011;28616;44.746;19.678;2022-07-15T10:53:59;9.68;;;8.80;;
42978;SDS011;28616;44.746;19.678;2022-07-15T10:56:27;8.27;;;7.68;;
42978;SDS011;28616;44.746;19.678;2022-07-15T10:59:14;10.70;;;9.10;;
42978;SDS011;28616;44.746;19.678;2022-07-15T11:01:42;10.52;;;8.85;;
42978;SDS011;28616;44.746;19.678;2022-07-15T11:04:19;8.98;;;8.10;;
42978;SDS011;28616;44.746;19.678;2022-07-15T11:07:30;9.30;;;8.65;;
42978;SDS011;28616;44.746;19.678;2022-07-15T11:09:44;9.45;;;8.55;;
42978;SDS011;28616;44.746;19.678;2022-07-15T11:12:11;10.63;;;9.73;;
42978;SDS011;28616;44.746;19.678;2022-07-15T11:17:07;10.63;;;9.73;;
42978;SDS011;28616;44.746;19.678;2022-07-15T11:19:33;11.15;;;10.23;;
42978;SDS011;28616;44.746;19.678;2022-07-15T11:22:00;11.43;;;10.40;;
42978;SDS011;28616;44.746;19.678;2022-07-15T11:24:27;10.30;;;9.50;;
42978;SDS011;28616;44.746;19.678;2022-07-15T11:26:54;9.82;;;8.95;;
42978;SDS011;28616;44.746;19.678;2022-07-15T11:29:20;11.23;;;9.70;;
42978;SDS011;28616;44.746;19.678;2022-07-15T11:31:48;9.70;;;8.90;;
42978;SDS011;28616;44.746;19.678;2022-07-15T11:34:14;10.38;;;9.18;;
42978;SDS011;28616;44.746;19.678;2022-07-15T11:36:41;11.45;;;10.38;;
42978;SDS011;28616;44.746;19.678;2022-07-15T11:39:07;11.43;;;10.30;;
42978;SDS011;28616;44.746;19.678;2022-07-15T11:41:34;10.98;;;8.50;;
42978;SDS011;28616;44.746;19.678;2022-07-15T11:44:18;11.15;;;8.95;;
42978;SDS011;28616;44.746;19.678;2022-07-15T11:46:58;14.05;;;10.25;;
42978;SDS011;28616;44.746;19.678;2022-07-15T11:49:45;9.60;;;8.70;;
42978;SDS011;28616;44.746;19.678;2022-07-15T11:52:12;12.93;;;9.75;;
42978;SDS011;28616;44.746;19.678;2022-07-15T11:54:40;11.30;;;10.38;;
42978;SDS011;28616;44.746;19.678;2022-07-15T11:57:07;10.70;;;9.88;;
42978;SDS011;28616;44.746;19.678;2022-07-15T11:59:34;10.32;;;9.48;;
42978;SDS011;28616;44.746;19.678;2022-07-15T12:02:01;11.70;;;10.35;;
42978;SDS011;28616;44.746;19.678;2022-07-15T12:04:27;11.90;;;9.70;;
42978;SDS011;28616;44.746;19.678;2022-07-15T12:06:54;11.10;;;10.02;;
42978;SDS011;28616;44.746;19.678;2022-07-15T12:09:20;11.45;;;9.85;;
42978;SDS011;28616;44.746;19.678;2022-07-15T12:11:46;12.25;;;9.30;;
42978;SDS011;28616;44.746;19.678;2022-07-15T12:14:14;12.43;;;10.90;;
42978;SDS011;28616;44.746;19.678;2022-07-15T12:16:47;10.30;;;9.50;;
42978;SDS011;28616;44.746;19.678;2022-07-15T12:19:14;13.13;;;10.70;;
42978;SDS011;28616;44.746;19.678;2022-07-15T12:21:41;10.70;;;9.82;;
42978;SDS011;28616;44.746;19.678;2022-07-15T12:24:18;11.10;;;10.20;;
42978;SDS011;28616;44.746;19.678;2022-07-15T12:29:18;12.52;;;11.63;;
42978;SDS011;28616;44.746;19.678;2022-07-15T12:32:01;13.90;;;10.68;;
42978;SDS011;28616;44.746;19.678;2022-07-15T12:37:13;11.60;;;10.60;;
42978;SDS011;28616;44.746;19.678;2022-07-15T12:42:24;8.25;;;7.13;;
42978;SDS011;28616;44.746;19.678;2022-07-15T12:45:08;7.68;;;6.45;;
42978;SDS011;28616;44.746;19.678;2022-07-15T12:47:35;9.00;;;7.20;;
42978;SDS011;28616;44.746;19.678;2022-07-15T12:50:01;8.80;;;7.80;;
42978;SDS011;28616;44.746;19.678;2022-07-15T12:55:22;10.73;;;6.55;;
42978;SDS011;28616;44.746;19.678;2022-07-15T12:57:46;8.75;;;7.95;;
42978;SDS011;28616;44.746;19.678;2022-07-15T13:00:14;11.25;;;8.40;;
42978;SDS011;28616;44.746;19.678;2022-07-15T13:05:26;9.40;;;7.50;;
42978;SDS011;28616;44.746;19.678;2022-07-15T13:07:53;7.93;;;7.20;;
42978;SDS011;28616;44.746;19.678;2022-07-15T13:10:19;8.60;;;7.57;;
42978;SDS011;28616;44.746;19.678;2022-07-15T13:12:45;9.80;;;8.52;;
42978;SDS011;28616;44.746;19.678;2022-07-15T13:15:11;8.25;;;7.55;;
42978;SDS011;28616;44.746;19.678;2022-07-15T13:17:37;11.07;;;8.30;;
42978;SDS011;28616;44.746;19.678;2022-07-15T13:20:04;8.45;;;7.65;;
42978;SDS011;28616;44.746;19.678;2022-07-15T13:22:31;11.00;;;6.82;;
42978;SDS011;28616;44.746;19.678;2022-07-15T13:24:57;8.30;;;6.70;;
42978;SDS011;28616;44.746;19.678;2022-07-15T13:27:24;10.10;;;7.10;;
42978;SDS011;28616;44.746;19.678;2022-07-15T13:29:50;10.70;;;7.22;;
42978;SDS011;28616;44.746;19.678;2022-07-15T13:32:16;8.18;;;7.68;;
42978;SDS011;28616;44.746;19.678;2022-07-15T13:34:42;7.85;;;7.15;;
42978;SDS011;28616;44.746;19.678;2022-07-15T13:37:08;8.77;;;7.95;;
42978;SDS011;28616;44.746;19.678;2022-07-15T13:39:34;7.85;;;7.20;;
42978;SDS011;28616;44.746;19.678;2022-07-15T13:42:01;8.13;;;7.43;;
42978;SDS011;28616;44.746;19.678;2022-07-15T13:44:27;8.32;;;7.50;;
42978;SDS011;28616;44.746;19.678;2022-07-15T13:46:53;11.73;;;6.97;;
42978;SDS011;28616;44.746;19.678;2022-07-15T13:49:19;7.65;;;7.15;;
42978;SDS011;28616;44.746;19.678;2022-07-15T13:52:05;8.55;;;7.43;;
42978;SDS011;28616;44.746;19.678;2022-07-15T13:54:31;10.05;;;7.40;;
42978;SDS011;28616;44.746;19.678;2022-07-15T13:56:58;10.60;;;7.45;;
42978;SDS011;28616;44.746;19.678;2022-07-15T13:59:24;7.88;;;7.00;;
42978;SDS011;28616;44.746;19.678;2022-07-15T14:01:50;7.63;;;7.03;;
42978;SDS011;28616;44.746;19.678;2022-07-15T14:04:16;8.32;;;7.63;;
42978;SDS011;28616;44.746;19.678;2022-07-15T14:06:43;7.97;;;6.63;;
42978;SDS011;28616;44.746;19.678;2022-07-15T14:09:09;9.18;;;7.05;;
42978;SDS011;28616;44.746;19.678;2022-07-15T14:11:35;7.80;;;6.90;;
42978;SDS011;28616;44.746;19.678;2022-07-15T14:14:01;14.15;;;6.60;;
42978;SDS011;28616;44.746;19.678;2022-07-15T14:16:27;12.40;;;8.10;;
42978;SDS011;28616;44.746;19.678;2022-07-15T14:18:54;8.05;;;7.25;;
42978;SDS011;28616;44.746;19.678;2022-07-15T14:21:20;6.93;;;6.28;;
42978;SDS011;28616;44.746;19.678;2022-07-15T14:23:47;13.13;;;7.05;;
42978;SDS011;28616;44.746;19.678;2022-07-15T14:26:13;8.07;;;7.18;;
42978;SDS011;28616;44.746;19.678;2022-07-15T14:28:41;7.03;;;6.43;;
42978;SDS011;28616;44.746;19.678;2022-07-15T14:31:08;8.10;;;6.47;;
42978;SDS011;28616;44.746;19.678;2022-07-15T14:33:38;6.65;;;6.15;;
42978;SDS011;28616;44.746;19.678;2022-07-15T14:36:04;7.60;;;6.82;;
42978;SDS011;28616;44.746;19.678;2022-07-15T14:38:31;7.35;;;6.53;;
42978;SDS011;28616;44.746;19.678;2022-07-15T14:40:58;7.85;;;6.38;;
42978;SDS011;28616;44.746;19.678;2022-07-15T14:43:24;7.85;;;6.93;;
42978;SDS011;28616;44.746;19.678;2022-07-15T14:45:51;12.02;;;6.80;;
42978;SDS011;28616;44.746;19.678;2022-07-15T14:48:17;17.17;;;7.05;;
42978;SDS011;28616;44.746;19.678;2022-07-15T14:50:43;13.52;;;6.47;;
42978;SDS011;28616;44.746;19.678;2022-07-15T14:53:10;7.05;;;6.45;;
42978;SDS011;28616;44.746;19.678;2022-07-15T14:55:36;16.23;;;7.25;;
42978;SDS011;28616;44.746;19.678;2022-07-15T14:58:02;11.80;;;6.03;;
42978;SDS011;28616;44.746;19.678;2022-07-15T15:00:29;12.02;;;5.90;;
42978;SDS011;28616;44.746;19.678;2022-07-15T15:02:55;13.00;;;6.45;;
42978;SDS011;28616;44.746;19.678;2022-07-15T15:05:21;17.02;;;6.40;;
42978;SDS011;28616;44.746;19.678;2022-07-15T15:07:47;11.90;;;5.93;;
42978;SDS011;28616;44.746;19.678;2022-07-15T15:10:13;10.32;;;6.00;;